This is the latest recevied weather packets stored in our database for station/object N3EDS. If no packets are shown the sender has not sent any weather packets the latest 10 day(s).
| Time | Temp. | Humidity | Pressure | Rain* | Wind** | Luminosity | Snow |
|---|---|---|---|---|---|---|---|
| 1777738878 | 6.11° C | 65% | 1014.8 hPa | 0 mm | - | 567 W/m² | - |
| 1777738575 | 6.11° C | 63% | 1014.6 hPa | 0 mm | - | 246 W/m² | - |
| 1777738272 | 6.11° C | 66% | 1014.9 hPa | 0 mm | - | 352 W/m² | - |
| 1777737970 | 6.11° C | 67% | 1014.8 hPa | 0 mm | - | 323 W/m² | - |
| 1777737668 | 5.56° C | 68% | 1014.8 hPa | 0 mm | - | 222 W/m² | - |
| 1777737366 | 6.11° C | 70% | 1014.6 hPa | 0 mm | - | 137 W/m² | - |
| 1777737063 | 7.22° C | 65% | 1014.9 hPa | 0 mm | - | 123 W/m² | - |
| 1777736759 | 6.67° C | 67% | 1014.9 hPa | 0 mm | - | 974 W/m² | - |
| 1777736136 | 6.11° C | 65% | 1014.6 hPa | 0 mm | - | 262 W/m² | - |
| 1777735828 | 6.67° C | 64% | 1014.8 hPa | 0 mm | - | 249 W/m² | - |
| 1777735525 | 6.67° C | 69% | 1014.8 hPa | 0 mm | - | 298 W/m² | - |
| 1777735223 | 7.22° C | 69% | 1014.8 hPa | 0 mm | - | 231 W/m² | - |
| 1777734919 | 7.22° C | 69% | 1014.9 hPa | 0 mm | - | 333 W/m² | - |
| 1777734617 | 5.56° C | 74% | 1014.8 hPa | 0 mm | - | 877 W/m² | - |
| 1777734314 | 5.56° C | 74% | 1014.9 hPa | 0 mm | - | 246 W/m² | - |
| 1777734010 | 6.67° C | 68% | 1014.7 hPa | 0 mm | - | 160 W/m² | - |
| 1777733706 | 7.22° C | 70% | 1014.8 hPa | 0 mm | - | 230 W/m² | - |
| 1777733403 | 6.11° C | 72% | 1014.7 hPa | 0 mm | - | 822 W/m² | - |
| 1777733099 | 5.56° C | 74% | 1014.6 hPa | 0 mm | - | 136 W/m² | - |
| 1777732795 | 6.67° C | 73% | 1014.8 hPa | 0 mm | - | 180 W/m² | - |
| 1777732493 | 6.11° C | 72% | 1014.6 hPa | 0 mm | - | 619 W/m² | - |
| 1777732191 | 6.11° C | 76% | 1015 hPa | 0 mm | - | 723 W/m² | - |
| 1777731888 | 5° C | 78% | 1014.9 hPa | 0 mm | - | 665 W/m² | - |
| 1777731584 | 5° C | 79% | 1014.8 hPa | 0 mm | - | 92 W/m² | - |
| 1777731282 | 5.56° C | 79% | 1014.8 hPa | 0 mm | - | 183 W/m² | - |
* Rain latest hour (hover to see other rain measurements)
** Current wind speed in m/s (hover to see current wind gust speed)